createdAt,value
2022-09-28T00:01:20.451Z,0.50
2022-09-28T00:04:22.547Z,0.40
2022-09-28T00:07:24.632Z,0.50
2022-09-28T00:10:26.678Z,0.43
2022-09-28T00:13:29.529Z,0.55
2022-09-28T00:16:34.179Z,0.50
2022-09-28T00:19:36.400Z,0.40
2022-09-28T00:22:38.702Z,0.60
2022-09-28T00:25:40.740Z,0.40
2022-09-28T00:28:42.774Z,0.55
2022-09-28T00:31:44.970Z,0.40
2022-09-28T00:34:48.688Z,0.60
2022-09-28T00:37:50.919Z,0.60
2022-09-28T00:40:53.342Z,0.70
2022-09-28T00:44:24.445Z,0.50
2022-09-28T00:47:38.407Z,0.50
2022-09-28T00:50:40.892Z,0.50
2022-09-28T00:53:43.595Z,0.40
2022-09-28T00:56:46.504Z,0.50
2022-09-28T00:59:49.605Z,0.50
2022-09-28T01:02:51.643Z,0.50
2022-09-28T01:05:53.773Z,0.60
2022-09-28T01:08:58.434Z,0.50
2022-09-28T01:12:00.790Z,0.60
2022-09-28T01:15:02.935Z,0.60
2022-09-28T01:18:13.348Z,0.60
2022-09-28T01:21:23.920Z,0.50
2022-09-28T01:24:46.924Z,0.60
2022-09-28T01:27:57.655Z,0.40
2022-09-28T01:31:14.037Z,0.40
2022-09-28T01:34:25.489Z,0.70
2022-09-28T01:37:37.434Z,0.60
2022-09-28T01:40:39.648Z,0.50
2022-09-28T01:43:44.888Z,0.55
2022-09-28T01:46:48.564Z,0.63
2022-09-28T01:50:00.556Z,0.50
2022-09-28T01:53:24.236Z,0.80
2022-09-28T01:56:55.720Z,0.52
2022-09-28T02:00:10.578Z,0.40
2022-09-28T02:03:29.546Z,0.68
2022-09-28T02:06:41.426Z,0.55
2022-09-28T02:10:00.169Z,0.75
2022-09-28T02:13:21.981Z,0.50
2022-09-28T02:16:45.243Z,0.50
2022-09-28T02:19:47.499Z,0.52
2022-09-28T02:22:55.915Z,0.55
2022-09-28T02:26:04.081Z,0.40
2022-09-28T02:29:06.607Z,0.40
2022-09-28T02:32:08.716Z,0.80
2022-09-28T02:35:17.025Z,0.50
2022-09-28T02:41:48.490Z,0.63
2022-09-28T02:45:05.878Z,0.55
2022-09-28T02:48:45.661Z,0.50
2022-09-28T02:52:10.747Z,0.60
2022-09-28T02:56:04.902Z,0.52
2022-09-28T02:59:53.607Z,0.50
2022-09-28T03:03:09.276Z,0.73
2022-09-28T03:06:23.201Z,0.77
2022-09-28T03:09:59.071Z,0.65
2022-09-28T03:13:01.170Z,0.60
2022-09-28T03:16:20.721Z,0.50
2022-09-28T03:19:33.256Z,0.65
2022-09-28T03:22:35.700Z,0.63
2022-09-28T03:25:37.848Z,0.60
2022-09-28T03:28:44.931Z,0.52
2022-09-28T03:31:52.862Z,0.70
2022-09-28T03:34:55.866Z,0.70
2022-09-28T03:37:58.028Z,0.70
2022-09-28T03:41:02.229Z,0.60
2022-09-28T03:47:12.121Z,0.80
2022-09-28T03:50:14.551Z,0.43
2022-09-28T03:53:16.588Z,0.70
2022-09-28T03:56:18.763Z,0.60
2022-09-28T03:59:21.248Z,0.50
2022-09-28T04:02:23.420Z,0.50
2022-09-28T04:05:25.517Z,0.60
2022-09-28T04:08:28.050Z,0.50
2022-09-28T04:11:38.530Z,0.77
2022-09-28T04:14:52.602Z,0.50
2022-09-28T04:17:55.089Z,0.50
2022-09-28T04:21:18.886Z,0.70
2022-09-28T04:24:25.407Z,0.52
2022-09-28T04:27:46.321Z,0.60
2022-09-28T04:30:48.883Z,0.50
2022-09-28T04:33:51.666Z,0.68
2022-09-28T04:36:53.996Z,0.60
2022-09-28T04:39:56.079Z,0.60
2022-09-28T04:42:58.171Z,0.55
2022-09-28T04:46:01.711Z,0.60
2022-09-28T04:49:13.259Z,0.60
2022-09-28T04:52:20.716Z,0.40
2022-09-28T04:55:24.300Z,0.60
2022-09-28T04:58:27.105Z,0.50
2022-09-28T05:01:30.529Z,0.60
2022-09-28T05:04:32.611Z,0.50
2022-09-28T05:07:52.969Z,0.47
2022-09-28T05:11:03.343Z,0.50
2022-09-28T05:14:06.779Z,0.65
2022-09-28T05:17:09.977Z,0.60
2022-09-28T05:20:31.403Z,0.45
2022-09-28T05:23:34.607Z,0.55
2022-09-28T05:26:36.888Z,0.50
2022-09-28T05:29:39.704Z,0.70
2022-09-28T05:33:04.820Z,0.80
2022-09-28T05:36:27.420Z,0.80
2022-09-28T05:39:29.528Z,0.70
2022-09-28T05:42:31.787Z,1.15
2022-09-28T05:45:33.930Z,0.50
2022-09-28T05:48:38.287Z,0.70
2022-09-28T05:51:40.378Z,0.50
2022-09-28T05:54:43.969Z,0.50
2022-09-28T05:57:46.237Z,0.70
2022-09-28T06:00:55.716Z,0.63
2022-09-28T06:03:57.883Z,1.05
2022-09-28T06:07:00.591Z,0.60
2022-09-28T06:10:02.915Z,0.60
2022-09-28T06:13:15.230Z,0.50
2022-09-28T06:16:17.358Z,0.60
2022-09-28T06:19:20.141Z,0.68
2022-09-28T06:22:59.798Z,0.60
2022-09-28T06:26:02.552Z,0.60
2022-09-28T06:29:05.609Z,0.60
2022-09-28T06:32:07.958Z,0.70
2022-09-28T06:35:12.048Z,0.63
2022-09-28T06:38:14.151Z,0.50
2022-09-28T06:41:16.239Z,0.60
2022-09-28T06:44:19.910Z,0.70
2022-09-28T06:47:41.906Z,0.80
2022-09-28T06:50:52.063Z,0.60
2022-09-28T06:54:01.979Z,0.60
2022-09-28T06:57:26.865Z,0.50
2022-09-28T07:00:31.167Z,0.60
2022-09-28T07:03:33.273Z,0.50
2022-09-28T07:06:55.611Z,0.60
2022-09-28T07:10:07.083Z,0.50
2022-09-28T07:13:49.905Z,0.55
2022-09-28T07:17:12.371Z,0.50
2022-09-28T07:20:19.420Z,0.80
2022-09-28T07:23:27.481Z,0.57
2022-09-28T07:26:59.310Z,0.52
2022-09-28T07:30:10.742Z,0.50
2022-09-28T07:33:32.851Z,0.60
2022-09-28T07:36:51.951Z,0.50
2022-09-28T07:40:12.764Z,0.40
2022-09-28T07:43:20.464Z,0.50
2022-09-28T07:46:24.004Z,0.60
2022-09-28T07:49:40.010Z,0.57
2022-09-28T07:53:09.800Z,0.60
2022-09-28T07:56:37.730Z,0.60
2022-09-28T08:00:07.266Z,0.80
2022-09-28T08:03:24.058Z,0.60
2022-09-28T08:06:27.758Z,0.60
2022-09-28T08:09:30.387Z,0.63
2022-09-28T08:12:59.160Z,0.50
2022-09-28T08:16:22.825Z,0.57
2022-09-28T08:20:06.517Z,0.57
2022-09-28T08:23:09.831Z,0.65
2022-09-28T08:26:15.556Z,0.70
2022-09-28T08:29:19.103Z,0.60
2022-09-28T08:32:26.860Z,1.13
2022-09-28T08:35:56.049Z,0.70
2022-09-28T08:39:30.343Z,0.70
2022-09-28T08:42:49.007Z,0.57
2022-09-28T08:46:14.650Z,0.60
2022-09-28T08:49:45.238Z,0.50
2022-09-28T08:53:35.052Z,0.50
2022-09-28T08:57:17.670Z,0.57
2022-09-28T09:00:50.329Z,0.55
2022-09-28T09:03:53.475Z,0.43
2022-09-28T09:07:26.396Z,0.70
2022-09-28T09:10:53.131Z,0.40
2022-09-28T09:14:57.899Z,0.63
2022-09-28T09:18:33.118Z,0.50
2022-09-28T09:22:02.212Z,0.40
2022-09-28T09:25:41.019Z,0.43
2022-09-28T09:29:09.681Z,0.40
2022-09-28T09:33:05.183Z,0.30
2022-09-28T09:36:19.431Z,0.50
2022-09-28T09:40:29.089Z,0.43
2022-09-28T09:44:29.438Z,0.32
2022-09-28T09:47:48.075Z,0.50
2022-09-28T09:51:08.649Z,0.30
2022-09-28T09:54:29.543Z,0.40
2022-09-28T09:57:51.224Z,0.30
2022-09-28T10:01:38.616Z,0.30
2022-09-28T10:05:10.867Z,0.30
2022-09-28T10:08:18.241Z,0.50
2022-09-28T10:11:31.071Z,0.35
2022-09-28T10:14:34.090Z,0.30
2022-09-28T10:17:42.586Z,0.30
2022-09-28T10:21:02.933Z,0.30
2022-09-28T10:24:39.020Z,0.30
2022-09-28T10:27:46.245Z,0.20
2022-09-28T10:30:49.017Z,0.30
2022-09-28T10:33:51.586Z,0.30
2022-09-28T10:37:05.456Z,0.40
2022-09-28T10:40:45.994Z,0.40
2022-09-28T10:44:08.894Z,0.30
2022-09-28T10:47:49.330Z,0.25
2022-09-28T10:51:08.648Z,0.30
2022-09-28T10:54:20.336Z,0.40
2022-09-28T10:57:29.471Z,0.20
2022-09-28T11:00:42.149Z,0.30
2022-09-28T11:03:52.818Z,0.30
2022-09-28T11:10:02.278Z,0.25
2022-09-28T11:13:09.564Z,0.40
2022-09-28T11:16:39.968Z,0.30
2022-09-28T11:19:42.276Z,0.30
2022-09-28T11:22:46.351Z,0.20
2022-09-28T11:26:06.259Z,0.30
2022-09-28T11:29:41.867Z,0.20
2022-09-28T11:32:50.252Z,0.30
2022-09-28T11:36:03.566Z,0.40
2022-09-28T11:39:17.972Z,0.20
2022-09-28T11:43:09.098Z,0.25
2022-09-28T11:46:15.253Z,0.40
2022-09-28T11:49:27.027Z,0.20
2022-09-28T11:52:51.824Z,0.30
2022-09-28T11:56:14.761Z,0.30
2022-09-28T11:59:41.012Z,0.30
2022-09-28T12:03:09.420Z,0.47
2022-09-28T12:06:26.283Z,0.20
2022-09-28T12:09:43.550Z,0.15
2022-09-28T12:13:17.441Z,0.20
2022-09-28T12:20:16.398Z,0.30
2022-09-28T12:23:38.917Z,0.30
2022-09-28T12:26:55.158Z,0.20
2022-09-28T12:30:21.491Z,0.30
2022-09-28T12:33:23.638Z,0.25
2022-09-28T12:36:41.792Z,0.22
2022-09-28T12:40:01.098Z,0.20
2022-09-28T12:43:28.985Z,0.22
2022-09-28T12:46:48.928Z,0.30
2022-09-28T12:50:44.038Z,0.20
2022-09-28T12:54:20.986Z,0.20
2022-09-28T12:58:07.867Z,0.20
2022-09-28T13:01:57.705Z,0.20
2022-09-28T13:05:20.466Z,0.25
2022-09-28T13:08:58.182Z,0.40
2022-09-28T13:12:30.033Z,0.30
2022-09-28T13:15:40.107Z,0.40
2022-09-28T13:19:09.101Z,0.20
2022-09-28T13:22:23.106Z,0.20
2022-09-28T13:25:27.494Z,0.30
2022-09-28T13:28:29.558Z,0.28
2022-09-28T13:31:34.943Z,0.25
2022-09-28T13:34:39.301Z,0.30
2022-09-28T13:37:41.574Z,0.30
2022-09-28T13:41:04.838Z,0.30
2022-09-28T13:44:12.944Z,0.45
2022-09-28T13:47:44.771Z,0.30
2022-09-28T13:51:31.944Z,0.30
2022-09-28T13:55:13.810Z,0.30
2022-09-28T13:58:38.440Z,0.20
2022-09-28T14:02:09.746Z,0.40
2022-09-28T14:05:25.167Z,0.40
2022-09-28T14:08:39.225Z,0.20
2022-09-28T14:11:44.011Z,0.30
2022-09-28T14:14:52.783Z,0.30
2022-09-28T14:18:29.799Z,0.20
2022-09-28T14:22:05.943Z,0.35
2022-09-28T14:25:25.311Z,0.28
2022-09-28T14:28:56.259Z,0.57
2022-09-28T14:32:09.595Z,0.40
2022-09-28T14:35:24.493Z,0.40
2022-09-28T14:39:08.292Z,0.50
2022-09-28T14:42:21.995Z,0.40
2022-09-28T14:45:35.286Z,0.40
2022-09-28T14:49:05.722Z,0.40
2022-09-28T14:52:10.924Z,0.50
2022-09-28T14:55:18.294Z,0.50
2022-09-28T14:58:27.495Z,0.47
2022-09-28T15:01:30.275Z,0.50
2022-09-28T15:04:32.545Z,0.50
2022-09-28T15:07:52.227Z,0.52
2022-09-28T15:10:54.303Z,0.30
2022-09-28T15:14:07.143Z,0.40
2022-09-28T15:17:09.854Z,0.45
2022-09-28T15:20:30.563Z,0.50
2022-09-28T15:23:41.275Z,0.40
2022-09-28T15:26:48.160Z,0.25
2022-09-28T15:30:19.682Z,0.40
2022-09-28T15:34:03.786Z,0.50
2022-09-28T15:37:11.375Z,0.47
2022-09-28T15:40:16.836Z,0.47
2022-09-28T15:43:29.079Z,0.40
2022-09-28T15:46:41.796Z,0.60
2022-09-28T15:49:58.524Z,0.70
2022-09-28T15:53:04.680Z,0.75
2022-09-28T15:56:10.240Z,0.50
2022-09-28T15:59:14.966Z,0.52
2022-09-28T16:02:22.612Z,0.50
2022-09-28T16:05:35.651Z,0.57
2022-09-28T16:08:48.971Z,0.40
2022-09-28T16:11:51.179Z,0.60
2022-09-28T16:14:53.471Z,0.60
2022-09-28T16:18:01.484Z,0.40
2022-09-28T16:21:46.234Z,0.30
2022-09-28T16:24:55.833Z,0.30
2022-09-28T16:27:57.883Z,0.30
2022-09-28T16:31:13.780Z,0.38
2022-09-28T16:34:20.732Z,0.40
2022-09-28T16:37:42.733Z,0.40
2022-09-28T16:40:49.428Z,0.38
2022-09-28T16:43:55.179Z,0.30
2022-09-28T16:46:57.745Z,0.47
2022-09-28T16:50:00.778Z,0.40
2022-09-28T16:53:33.794Z,0.38
2022-09-28T16:56:36.227Z,0.30
2022-09-28T16:59:38.696Z,0.30
2022-09-28T17:02:46.786Z,0.30
2022-09-28T17:05:49.764Z,0.40
2022-09-28T17:08:52.358Z,0.35
2022-09-28T17:11:56.299Z,0.30
2022-09-28T17:15:00.094Z,0.40
2022-09-28T17:18:02.704Z,0.40
2022-09-28T17:21:15.947Z,0.30
2022-09-28T17:24:19.249Z,0.40
2022-09-28T17:27:21.682Z,0.40
2022-09-28T17:30:25.790Z,0.40
2022-09-28T17:33:28.641Z,0.40
2022-09-28T17:36:30.977Z,0.30
2022-09-28T17:39:33.075Z,0.20
2022-09-28T17:42:35.130Z,0.30
2022-09-28T17:45:39.510Z,0.35
2022-09-28T17:48:46.027Z,0.30
2022-09-28T17:51:50.094Z,0.20
2022-09-28T17:54:52.147Z,0.20
2022-09-28T17:57:54.730Z,0.17
2022-09-28T18:00:56.841Z,0.25
2022-09-28T18:04:01.083Z,0.25
2022-09-28T18:07:03.170Z,0.20
2022-09-28T18:10:06.677Z,0.10
2022-09-28T18:13:09.272Z,0.30
2022-09-28T18:16:11.625Z,0.63
2022-09-28T18:19:13.804Z,0.30
2022-09-28T18:22:15.891Z,0.30
2022-09-28T18:25:18.102Z,0.20
2022-09-28T18:28:21.631Z,0.30
2022-09-28T18:31:23.728Z,0.20
2022-09-28T18:34:25.962Z,0.30
2022-09-28T18:37:28.301Z,0.50
2022-09-28T18:40:30.471Z,0.40
2022-09-28T18:43:35.739Z,0.50
2022-09-28T18:46:38.684Z,0.45
2022-09-28T18:49:45.919Z,0.47
2022-09-28T18:52:48.771Z,0.47
2022-09-28T18:55:50.830Z,0.70
2022-09-28T18:58:53.290Z,0.50
2022-09-28T19:01:55.421Z,0.32
2022-09-28T19:04:57.598Z,0.47
2022-09-28T19:08:00.165Z,0.60
2022-09-28T19:11:21.146Z,0.40
2022-09-28T19:14:23.332Z,0.43
2022-09-28T19:17:25.527Z,0.50
2022-09-28T19:20:27.578Z,0.60
2022-09-28T19:23:29.703Z,0.70
2022-09-28T19:26:32.874Z,0.57
2022-09-28T19:29:34.998Z,0.80
2022-09-28T19:32:37.927Z,0.50
2022-09-28T19:35:40.046Z,0.55
2022-09-28T19:38:42.406Z,0.70
2022-09-28T19:41:45.764Z,0.65
2022-09-28T19:44:48.140Z,0.88
2022-09-28T19:47:50.272Z,0.95
2022-09-28T19:50:59.697Z,1.00
2022-09-28T19:54:02.759Z,1.23
2022-09-28T19:57:07.889Z,1.52
2022-09-28T20:00:11.460Z,1.20
2022-09-28T20:03:13.563Z,1.10
2022-09-28T20:06:17.440Z,1.40
2022-09-28T20:09:20.087Z,1.20
2022-09-28T20:12:22.492Z,1.30
2022-09-28T20:15:25.207Z,1.20
2022-09-28T20:18:27.566Z,1.30
2022-09-28T20:21:29.818Z,1.73
2022-09-28T20:24:32.157Z,1.30
2022-09-28T20:27:34.265Z,1.20
2022-09-28T20:30:37.349Z,1.35
2022-09-28T20:33:39.502Z,1.05
2022-09-28T20:36:43.162Z,1.10
2022-09-28T20:39:45.443Z,1.60
2022-09-28T20:42:47.476Z,1.30
2022-09-28T20:45:50.605Z,1.30
2022-09-28T20:48:54.053Z,1.65
2022-09-28T20:51:56.146Z,0.98
2022-09-28T20:54:58.214Z,1.10
2022-09-28T20:58:03.703Z,0.80
2022-09-28T21:01:30.590Z,1.30
2022-09-28T21:04:32.693Z,1.20
2022-09-28T21:07:34.743Z,0.80
2022-09-28T21:10:36.760Z,1.00
2022-09-28T21:13:42.914Z,1.20
2022-09-28T21:16:45.045Z,1.65
2022-09-28T21:19:47.104Z,0.90
2022-09-28T21:22:49.243Z,0.90
2022-09-28T21:26:00.269Z,1.10
2022-09-28T21:29:04.875Z,0.90
2022-09-28T21:32:08.173Z,0.73
2022-09-28T21:35:10.229Z,0.90
2022-09-28T21:38:12.286Z,1.05
2022-09-28T21:41:14.399Z,0.68
2022-09-28T21:44:16.613Z,0.95
2022-09-28T21:47:18.746Z,0.88
2022-09-28T21:50:22.819Z,0.80
2022-09-28T21:53:26.006Z,0.95
2022-09-28T21:56:28.123Z,0.90
2022-09-28T21:59:30.400Z,0.80
2022-09-28T22:02:33.757Z,0.90
2022-09-28T22:05:35.803Z,0.80
2022-09-28T22:08:38.439Z,0.80
2022-09-28T22:11:40.480Z,0.82
2022-09-28T22:14:42.539Z,1.05
2022-09-28T22:17:44.663Z,0.68
2022-09-28T22:20:46.742Z,0.90
2022-09-28T22:23:48.931Z,0.75
2022-09-28T22:26:50.981Z,0.82
2022-09-28T22:29:53.056Z,0.80
2022-09-28T22:32:55.147Z,0.93
2022-09-28T22:35:57.194Z,0.70
2022-09-28T22:38:59.776Z,0.90
2022-09-28T22:42:01.843Z,1.17
2022-09-28T22:45:04.451Z,0.68
2022-09-28T22:48:07.213Z,0.65
2022-09-28T22:51:09.832Z,0.85
2022-09-28T22:54:16.295Z,0.73
2022-09-28T22:57:18.604Z,0.60
2022-09-28T23:00:20.741Z,0.80
2022-09-28T23:03:22.985Z,0.75
2022-09-28T23:06:26.300Z,0.75
2022-09-28T23:09:28.342Z,0.70
2022-09-28T23:12:30.586Z,1.02
2022-09-28T23:15:32.835Z,0.88
2022-09-28T23:18:36.782Z,0.77
2022-09-28T23:21:39.656Z,0.88
2022-09-28T23:24:41.689Z,0.60
2022-09-28T23:27:47.935Z,0.80
2022-09-28T23:30:50.129Z,0.70
2022-09-28T23:33:52.440Z,0.88
2022-09-28T23:36:54.987Z,0.80
2022-09-28T23:39:57.124Z,0.70
2022-09-28T23:42:59.479Z,0.80
2022-09-28T23:46:01.782Z,1.00
2022-09-28T23:49:03.905Z,0.50
2022-09-28T23:52:06.105Z,0.50
2022-09-28T23:55:08.653Z,0.45
2022-09-28T23:58:11.455Z,0.50
